Ridgecrest, CA (93555)

05:54 AM PDT am 30. Oktober 2014 (GMT -0700)
City Hall | Change Station
CLOSE
Current Station
Persönliche Wetterstationen
Location: Ridgecrest, CA
Höhe: 2315 ft
Wetterstationen in der Umgebung

Höhe 2315 ft 35.62 °N, 117.67 °W | Updated 6 seconds ago

Heiter
Heiter
52.5 °F
gefühlte 52.5 °F
N
0.0
Wind Wechselnd Wind aus West-Südwest
Gusts 0.0 mph

Heute
Max. -- | schwach -- °F
--% Regenrisiko
Gestern
Max. -- | schwach -- °F
Precip. -- inch
7:10 AM 5:57 PM
Erstes Viertel, 43% visible
Druck 30.02 inch
Sichtweite 10.0 Meilen
Wolken Heiter
Taupunkt 19 °F
Feuchtigkeit 26%
Regen 0.00 inch
Schneehöhe Nicht verfügbar..
UV 0 von 12
Pollen 3.80 von 12
Luftqualität Nicht verfügbar..
Flu Activity Nicht verfügbar..
METAR KNID 301156Z AUTO 26004KT 10SM CLR 10/M09 A3005 RMK AO2 SLP166 T01001089 10133 20083 56006 $

More Conditions Fewer Conditions

Druck 30.02 inch
Sichtweite 10.0 Meilen
Wolken Heiter
Taupunkt 19 °F
Feuchtigkeit 26%
Regen 0.00 inch
Schneehöhe Nicht verfügbar..
UV 0 von 12
Pollen 3.80 von 12
Luftqualität Nicht verfügbar..
Flu Activity Nicht verfügbar..
METAR KNID 301156Z AUTO 26004KT 10SM CLR 10/M09 A3005 RMK AO2 SLP166 T01001089 10133 20083 56006 $

More Conditions Fewer Conditions

10-Day Weather Forecast

Almanac

Astronomie

Oct. 30, 2014 Aufgang Untergang
Genaue Zeit
Bürgerliche Dämmerung
Nautische Dämmerung
Astronomische Dämmerung
Mond
Länge des sichtbaren Lichts
Tageslänge
Tomorrow will be .
, % of the Moon is Illuminated

Heutige Rekorde

State Highs State Lows

Community

WunderPhotos

Upload Photos

1,766,353 Fotos hochgeladen!

WunderBlogs® & News

Nearby

Luftqualität

  Luftqualität LQ Index Schadstoff
Not available.

Schneehöhe

Station Depth Höhe

Erdbebenaktivität

Stadt Distance Mag. Time & Date
Minimum magnitude displayed is 2.5.

küstennahe Wassertemperaturen

Ort Temperatur

Wetterstationen in der Umgebung